Flight Track Log - Related Links

Times and Time Zones

All times are in EDT time to prevent confusion due to time zone crossing. See the GJS3707 flight status page for this flight to view local times or setup timezone preferences in your user account.

Time Position Orientation Groundspeed Altitude Reporting Facility
EDT Latitude Longitude Course Direction KTS MPH feet Rate Location/Type
Sat 02:54:52 PM 43.5931 -116.3167 290° West 192 221 5,400  Level Salt Lake Center
Sat 02:55:54 PM 43.6461 -116.2847 24° Northeast 240 276 7,400 2,000 Climbing Salt Lake Center
Sat 02:56:00 PM 43.6325 -115.7226 79° East  Level FlightAware Approximate
Sat 02:56:55 PM 43.6758 -116.1783 69° East 263 303 9,500  Level Salt Lake Center
Sat 02:57:00 PM 43.6584 -115.5544 78° East  Level FlightAware Approximate
Sat 02:57:57 PM 43.7083 -116.0792 66° East 293 337 11,100  Level Salt Lake Center
Sat 02:58:00 PM 43.6772 -115.3844 83° East  Level FlightAware Approximate
Sat 02:58:58 PM 43.7500 -115.9461 67° East 335 386 12,700  Level Salt Lake Center
Sat 02:59:00 PM 43.7017 -115.2181 81° East  Level FlightAware Approximate
Sat 03:00:00 PM 43.7861 -115.8222 68° East 359 413 14,000  Level Salt Lake Center
Sat 03:01:02 PM 43.8261 -115.6675 70° East 382 440 15,700 1,610 Climbing Salt Lake Center
Sat 03:02:03 PM 43.8389 -115.5214 83° East 401 461 17,300 1,512 Climbing Salt Lake Center
Sat 03:03:05 PM 43.8508 -115.3494 84° East 403 464 18,800 1,403 Climbing Salt Lake Center
Sat 03:04:07 PM 43.8619 -115.1958 84° East 415 478 20,200 1,366 Climbing Salt Lake Center
Sat 03:05:08 PM 43.8733 -115.0400 84° East 424 488 21,600 1,366 Climbing Salt Lake Center
Sat 03:06:10 PM 43.8850 -114.8578 85° East 425 489 23,000 1,171 Climbing Salt Lake Center
Sat 03:07:11 PM 43.8958 -114.6958 85° East 440 506 24,000 1,024 Climbing Salt Lake Center
Sat 03:08:13 PM 43.9083 -114.5003 85° East 458 527 25,100 1,016 Climbing Salt Lake Center
Sat 03:09:15 PM 43.9197 -114.3297 85° East 464 534 26,100 1,024 Climbing Salt Lake Center
Sat 03:10:16 PM 43.9322 -114.1275 85° East 472 543 27,200 1,024 Climbing Salt Lake Center
Sat 03:11:18 PM 43.9419 -113.9519 86° East 477 549 28,200 968 Climbing Salt Lake Center
Sat 03:12:20 PM 43.9522 -113.7736 85° East 475 547 29,200 976 Climbing Salt Lake Center
Sat 03:13:21 PM 43.9611 -113.5675 87° East 480 552 30,200 829 Climbing Salt Lake Center
Sat 03:14:23 PM 43.9672 -113.3883 87° East 485 558 30,900 774 Climbing Salt Lake Center
Sat 03:15:25 PM 43.9764 -113.1775 86° East 490 564 31,800 829 Climbing Salt Lake Center
Sat 03:16:26 PM 43.9842 -112.9972 87° East 490 564 32,600 780 Climbing Salt Lake Center
Sat 03:17:28 PM 43.9922 -112.8178 86° East 487 560 33,400 774 Climbing Salt Lake Center
Sat 03:18:30 PM 43.9997 -112.6106 87° East 483 556 34,200 732 Climbing Salt Lake Center
Sat 03:19:31 PM 44.0061 -112.4328 87° East 482 555 34,900 732 Climbing Salt Lake Center
Sat 03:20:33 PM 44.0144 -112.2264 87° East 482 555 35,700 726 Climbing Salt Lake Center
Sat 03:21:35 PM 44.0200 -112.0497 87° East 480 552 36,400 726 Climbing Salt Lake Center
Sat 03:22:37 PM 44.0267 -111.8456 87° East 478 550 37,200 634 Climbing Salt Lake Center
Sat 03:23:38 PM 44.0314 -111.6728 88° East 472 543 37,700 488 Climbing Salt Lake Center
Sat 03:24:40 PM 44.0369 -111.4728 88° East 468 539 38,200 435 Climbing Salt Lake Center
Sat 03:25:42 PM 44.0417 -111.3008 88° East 468 539 38,600 341 Climbing Salt Lake Center
Sat 03:26:43 PM 44.0469 -111.1017 88° East 465 535 38,900 195 Climbing Salt Lake Center
Sat 03:27:45 PM 44.0508 -110.9308 88° East 464 534 39,000 49 Climbing Salt Lake Center
Sat 03:28:46 PM 44.0542 -110.7569 88° East 471 542 39,000  Level Salt Lake Center
Sat 03:29:48 PM 44.0603 -110.5500 88° East 478 550 39,000  Level Salt Lake Center
Sat 03:30:50 PM 44.0628 -110.3719 89° East 482 555 39,000  Level Salt Lake Center
Sat 03:31:51 PM 44.0669 -110.1642 88° East 483 556 39,000  Level Salt Lake Center
Sat 03:32:53 PM 44.0692 -109.9872 89° East 480 552 39,000  Level Salt Lake Center
Sat 03:33:55 PM 44.0722 -109.7853 89° East 473 544 39,000  Level Salt Lake Center
Sat 03:34:56 PM 44.0747 -109.6122 89° East 469 540 39,000  Level Salt Lake Center
Sat 03:35:58 PM 44.0761 -109.4133 89° East 464 534 39,000  Level Salt Lake Center
Sat 03:37:00 PM 44.0778 -109.2419 89° East 463 533 39,000  Level Salt Lake Center
Sat 03:38:01 PM 44.0792 -109.0694 89° East 467 537 39,000  Level Salt Lake Center
Sat 03:39:03 PM 44.0808 -108.8639 89° East 475 547 39,000  Level Salt Lake Center
Sat 03:40:04 PM 44.0814 -108.6881 90° East 477 549 39,000  Level Salt Lake Center
Sat 03:41:06 PM 44.0811 -108.4747 90° East 492 566 39,000  Level Salt Lake Center
Sat 03:42:07 PM 44.0803 -108.2931 90° East 493 567 39,000  Level Salt Lake Center
Sat 03:43:09 PM 44.0792 -108.0833 90° East 489 563 39,000  Level Salt Lake Center
Sat 03:44:11 PM 44.0789 -107.9044 90° East 487 560 39,000  Level Salt Lake Center
Sat 03:45:12 PM 44.0783 -107.7244 90° East 488 562 39,000  Level Salt Lake Center
Sat 03:46:14 PM 44.0781 -107.5136 90° East 491 565 39,000  Level Salt Lake Center
Sat 03:47:15 PM 44.0761 -107.3311 91° East 494 568 39,000  Level Salt Lake Center
Sat 03:48:17 PM 44.0753 -107.1189 90° East 496 571 39,000  Level Salt Lake Center
Sat 03:48:47 PM 44.0739 -107.0281 91° East 493 567 39,000  Level Denver Center
Sat 03:49:49 PM 44.0719 -106.8372 91° East 498 573 39,000  Level Denver Center
Sat 03:50:20 PM 44.0697 -106.7228 92° East 497 572 39,000  Level Salt Lake Center
Sat 03:50:50 PM 44.0697 -106.6239 90° East 495 570 39,000  Level Denver Center
Sat 03:51:51 PM 44.0664 -106.4428 91° East 491 565 39,000  Level Denver Center
Sat 03:52:23 PM 44.0644 -106.3289 91° East 495 570 39,000  Level Salt Lake Center
Sat 03:53:25 PM 44.0636 -106.1350 90° East 499 574 39,000  Level Salt Lake Center
Sat 03:53:54 PM 44.0608 -106.0453 92° East 495 570 39,000  Level Denver Center
Sat 03:54:56 PM 44.0578 -105.8622 91° East 494 568 39,000  Level Denver Center
Sat 03:55:57 PM 44.0528 -105.6519 92° East 489 563 39,000  Level Denver Center
Sat 03:56:59 PM 44.0478 -105.4736 92° East 485 558 39,000  Level Denver Center
Sat 03:58:00 PM 44.0439 -105.2931 92° East 486 559 39,000  Level Denver Center
Sat 03:59:01 PM 44.0375 -105.0836 92° East 485 558 39,000  Level Denver Center
Sat 04:00:03 PM 44.0328 -104.9019 92° East 489 563 39,000  Level Denver Center
Sat 04:01:04 PM 44.0269 -104.7192 92° East 492 566 39,000  Level Denver Center
Sat 04:02:06 PM 44.0206 -104.5069 92° East 492 566 39,000  Level Denver Center
Sat 04:03:07 PM 44.0136 -104.3250 93° East 492 566 39,000  Level Denver Center
Sat 04:04:09 PM 44.0061 -104.1108 93° East 497 572 39,000  Level Denver Center
Sat 04:05:10 PM 43.9992 -103.9267 93° East 500 575 39,000  Level Denver Center
Sat 04:06:12 PM 43.9922 -103.7436 93° East 497 572 39,000  Level Denver Center
Sat 04:07:13 PM 43.9836 -103.5306 93° East 495 570 39,000  Level Denver Center
Sat 04:08:15 PM 43.9764 -103.3481 93° East 495 570 39,000  Level Denver Center
Sat 04:09:28 PM 43.9675 -103.1392 93° East 489 563 39,000  Level Denver Center
Sat 04:10:30 PM 43.9572 -102.9289 94° East 489 563 39,000  Level Denver Center
Sat 04:11:32 PM 43.9489 -102.7428 93° East 489 563 39,000  Level Denver Center
Sat 04:12:33 PM 43.9389 -102.5569 94° East 487 560 39,000  Level Denver Center
Sat 04:13:35 PM 43.9247 -102.3331 95° East 487 560 39,000  Level Denver Center
Sat 04:14:36 PM 43.9128 -102.1450 95° East 488 562 39,000  Level Denver Center
Sat 04:15:38 PM 43.9025 -101.9589 94° East 487 560 39,000  Level Denver Center
Sat 04:16:39 PM 43.8931 -101.7769 94° East 481 554 39,000  Level Denver Center
Sat 04:17:53 PM 43.8833 -101.5622 94° East 472 543 39,000  Level Denver Center
Sat 04:18:55 PM 43.8725 -101.3781 95° East 477 549 39,000  Level Denver Center
Sat 04:19:56 PM 43.8619 -101.1931 94° East 481 554 39,000  Level Denver Center
Sat 04:20:58 PM 43.8467 -100.9722 95° East 482 555 39,000  Level Denver Center
Sat 04:21:59 PM 43.8347 -100.7886 95° East 483 556 39,000  Level Denver Center
Sat 04:23:01 PM 43.8231 -100.6053 95° East 481 554 39,000  Level Denver Center
Sat 04:24:03 PM 43.8108 -100.4250 95° East 476 548 39,000  Level Denver Center
Sat 04:25:04 PM 43.7975 -100.2411 96° East 478 550 39,000  Level Denver Center
Sat 04:26:06 PM 43.7847 -100.0561 95° East 483 556 39,000  Level Denver Center
Sat 04:27:22 PM 43.7661 -99.8017 96° East 482 555 39,000  Level Minneapolis Center
Sat 04:28:23 PM 43.7514 -99.6181 96° East 483 556 39,000  Level Minneapolis Center
Sat 04:29:25 PM 43.7372 -99.4339 96° East 483 556 39,000  Level Minneapolis Center
Sat 04:30:27 PM 43.7231 -99.2506 96° East 483 556 39,000  Level Minneapolis Center
Sat 04:31:29 PM 43.7083 -99.0653 96° East 484 557 39,000  Level Minneapolis Center
Sat 04:32:30 PM 43.6936 -98.8822 96° East 483 556 39,000  Level Minneapolis Center
Sat 04:33:32 PM 43.6789 -98.6964 96° East 486 559 39,000  Level Minneapolis Center
Sat 04:34:34 PM 43.6611 -98.4864 97° East 482 555 39,000  Level Minneapolis Center
Sat 04:35:36 PM 43.6442 -98.3033 97° East 483 556 39,000  Level Minneapolis Center
Sat 04:36:37 PM 43.6289 -98.1200 97° East 481 554 39,000  Level Minneapolis Center
Sat 04:37:39 PM 43.6114 -97.9372 97° East 483 556 39,000  Level Minneapolis Center
Sat 04:38:41 PM 43.5950 -97.7558 97° East 479 551 39,000  Level Minneapolis Center
Sat 04:39:43 PM 43.5747 -97.5358 97° East 483 556 39,000  Level Minneapolis Center
Sat 04:40:45 PM 43.5569 -97.3553 98° East 480 552 39,000  Level Minneapolis Center
Sat 04:41:47 PM 43.5389 -97.1711 98° East 485 558 39,000  Level Minneapolis Center
Sat 04:42:48 PM 43.5211 -96.9894 98° East 483 556 39,000  Level Minneapolis Center
Sat 04:43:50 PM 43.5028 -96.8058 98° East 486 559 39,000  Level Minneapolis Center
Sat 04:44:52 PM 43.4797 -96.5861 98° East 486 559 39,000  Level Minneapolis Center
Sat 04:45:54 PM 43.4608 -96.4031 98° East 487 560 39,000  Level Minneapolis Center
Sat 04:46:56 PM 43.4419 -96.2200 98° East 488 562 39,000  Level Minneapolis Center
Sat 04:47:58 PM 43.4222 -96.0358 98° East 490 564 39,000  Level Minneapolis Center
Sat 04:49:00 PM 43.4019 -95.8536 99° East 488 562 39,000  Level Minneapolis Center
Sat 04:50:02 PM 43.3808 -95.6708 99° East 487 560 39,000  Level Minneapolis Center
Sat 04:51:03 PM 43.3569 -95.4525 98° East 484 557 39,000  Level Minneapolis Center
Sat 04:52:05 PM 43.3364 -95.2714 99° East 483 556 39,000  Level Minneapolis Center
Sat 04:53:07 PM 43.3153 -95.0914 99° East 481 554 39,000  Level Minneapolis Center
Sat 04:54:09 PM 43.2939 -94.9119 99° East 479 551 39,000  Level Minneapolis Center
Sat 04:55:11 PM 43.2725 -94.7344 99° East 476 548 39,000  Level Minneapolis Center
Sat 04:56:13 PM 43.2506 -94.5556 100° East 477 549 39,000  Level Minneapolis Center
Sat 04:57:15 PM 43.2250 -94.3425 99° East 474 545 39,000  Level Minneapolis Center
Sat 04:58:16 PM 43.2028 -94.1669 100° East 478 550 39,000  Level Minneapolis Center
Sat 04:59:23 PM 43.1803 -93.9892 100° East 479 551 39,000 -279 Level Minneapolis Center
Sat 05:00:25 PM 43.1517 -93.7764 100° East 478 550 38,400 -774 Descending Minneapolis Center
Sat 05:01:27 PM 43.1289 -93.5964 100° East 483 556 37,400 -976 Descending Minneapolis Center
Sat 05:02:28 PM 43.1056 -93.4144 100° East 488 562 36,400 -976 Descending Minneapolis Center
Sat 05:03:30 PM 43.0867 -93.2333 98° East 487 560 35,400 -677 Descending Minneapolis Center
Sat 05:04:32 PM 43.0758 -93.0478 95° East 492 566 35,000 -387 Descending Minneapolis Center
Sat 05:05:34 PM 43.0636 -92.8628 95° East 493 567 34,600 -774 Descending Minneapolis Center
Sat 05:06:36 PM 43.0486 -92.6408 95° East 492 566 33,400 -1,017 Descending Minneapolis Center
Sat 05:07:32 PM 43.0356 -92.4922 97° East 496 571 32,600 -923 Descending Chicago Center
Sat 05:08:33 PM 43.0222 -92.3053 96° East 498 573 31,600 -780 Descending Chicago Center
Sat 05:09:35 PM 43.0064 -92.0811 95° East 498 573 31,000 -290 Descending Chicago Center
Sat 05:10:37 PM 42.9919 -91.8906 96° East 503 579 31,000  Level Chicago Center
Sat 05:11:38 PM 42.9789 -91.6972 95° East 508 585 31,000  Level Chicago Center
Sat 05:12:40 PM 42.9639 -91.5011 96° East 512 589 31,000  Level Chicago Center
Sat 05:13:42 PM 42.9472 -91.3058 97° East 514 592 31,000  Level Chicago Center
Sat 05:14:44 PM 42.9306 -91.1114 97° East 517 595 31,000 -98 Level Chicago Center
Sat 05:15:45 PM 42.9158 -90.9189 96° East 514 592 30,800 -634 Descending Chicago Center
Sat 05:16:47 PM 42.8986 -90.7294 97° East 508 585 29,700 -1,210 Descending Chicago Center
Sat 05:17:49 PM 42.8778 -90.5050 97° East 504 580 28,300 -1,268 Descending Chicago Center
Sat 05:18:50 PM 42.8625 -90.3225 96° East 492 566 27,100 -1,171 Descending Chicago Center
Sat 05:19:52 PM 42.8442 -90.1425 98° East 485 558 25,900 -1,161 Descending Chicago Center
Sat 05:20:54 PM 42.8072 -89.9733 107° East 474 545 24,700 -1,694 Descending Chicago Center
Sat 05:21:56 PM 42.7561 -89.7944 111° Southeast 452 520 22,400 -1,935 Descending Chicago Center
Sat 05:22:58 PM 42.7125 -89.6419 111° Southeast 434 499 20,700 -1,610 Descending Chicago Center
Sat 05:23:59 PM 42.6700 -89.4947 111° Southeast 422 486 19,100 -1,512 Descending Chicago Center
Sat 05:25:01 PM 42.6392 -89.3517 106° East 398 458 17,600 -1,415 Descending Chicago Center
Sat 05:26:02 PM 42.6761 -89.2231 69° East 366 421 16,200 -1,366 Descending Chicago Center
Sat 05:27:04 PM 42.6436 -89.1003 110° East 334 384 14,800 -1,403 Descending Chicago Center
Sat 05:28:06 PM 42.5631 -89.0439 153° Southeast 324 373 13,300 -1,220 Descending Chicago Center
Sat 05:29:07 PM 42.5244 -88.9328 115° Southeast 319 367 12,300 -585 Descending Chicago Center
Sat 05:30:09 PM 42.4869 -88.8222 115° Southeast 320 368 12,100 -581 Descending Chicago Center
Sat 05:31:11 PM 42.4494 -88.7161 116° Southeast 314 361 11,100 -1,024 Descending Chicago Center
Sat 05:32:12 PM 42.4133 -88.6131 115° Southeast 307 353 10,000 -976 Descending Chicago Center
Sat 05:33:14 PM 42.3611 -88.5067 124° Southeast 291 335 9,100 -871 Descending Chicago Center
Sat 05:34:16 PM 42.3181 -88.4256 126° Southeast 282 325 8,200 -1,210 Descending Chicago Center
Sat 05:35:18 PM 42.2731 -88.3414 126° Southeast 279 321 6,600 -1,561 Descending Chicago Center
Sat 05:36:19 PM 42.2292 -88.2561 125° Southeast 279 321 5,000 -984 Descending Chicago Center
Sat 05:37:20 PM 42.1875 -88.1789 126° Southeast 266 306 4,600 -488 Descending Chicago Center
Sat 05:38:22 PM 42.1497 -88.1133 128° Southeast 235 270 4,000 -581 Descending Chicago Center

Login

Don't have an account? Register now (free) for customized features, flight alerts, and more!